createdAt,value
2023-03-06T00:01:29.916Z,10.98
2023-03-06T00:03:58.725Z,10.55
2023-03-06T00:06:27.708Z,10.43
2023-03-06T00:08:56.633Z,11.02
2023-03-06T00:11:25.431Z,9.75
2023-03-06T00:13:54.255Z,10.73
2023-03-06T00:16:25.025Z,10.85
2023-03-06T00:18:53.921Z,11.00
2023-03-06T00:21:22.924Z,14.10
2023-03-06T00:23:51.731Z,15.55
2023-03-06T00:26:20.579Z,17.63
2023-03-06T00:28:49.411Z,17.42
2023-03-06T00:31:19.008Z,19.98
2023-03-06T00:33:49.566Z,15.98
2023-03-06T00:36:19.652Z,13.57
2023-03-06T00:38:48.508Z,12.65
2023-03-06T00:41:17.316Z,13.38
2023-03-06T00:43:46.107Z,14.07
2023-03-06T00:46:14.960Z,14.07
2023-03-06T00:48:45.078Z,10.93
2023-03-06T00:51:16.696Z,13.90
2023-03-06T00:53:45.564Z,12.27
2023-03-06T00:56:14.401Z,12.20
2023-03-06T00:58:43.678Z,13.55
2023-03-06T01:01:12.951Z,12.23
2023-03-06T01:03:41.990Z,14.77
2023-03-06T01:06:10.837Z,14.63
2023-03-06T01:08:41.015Z,15.38
2023-03-06T01:11:10.087Z,17.40
2023-03-06T01:13:38.985Z,16.48
2023-03-06T01:16:10.721Z,13.95
2023-03-06T01:18:39.780Z,17.17
2023-03-06T01:21:09.567Z,15.88
2023-03-06T01:23:38.499Z,16.77
2023-03-06T01:26:09.319Z,17.77
2023-03-06T01:28:39.239Z,10.85
2023-03-06T01:31:10.318Z,12.52
2023-03-06T01:33:39.611Z,13.10
2023-03-06T01:36:11.862Z,12.38
2023-03-06T01:38:41.193Z,16.88
2023-03-06T01:41:15.745Z,15.20
2023-03-06T01:43:46.439Z,12.23
2023-03-06T01:46:26.342Z,15.43
2023-03-06T01:48:57.705Z,13.75
2023-03-06T01:51:31.342Z,14.35
2023-03-06T01:54:03.290Z,15.48
2023-03-06T01:56:33.517Z,16.23
2023-03-06T01:59:03.326Z,15.02
2023-03-06T02:01:34.239Z,13.40
2023-03-06T02:04:03.808Z,11.75
2023-03-06T02:06:34.792Z,14.55
2023-03-06T02:09:06.760Z,13.95
2023-03-06T02:11:37.504Z,10.90
2023-03-06T02:14:06.585Z,12.20
2023-03-06T02:16:35.782Z,11.20
2023-03-06T02:19:08.613Z,11.48
2023-03-06T02:21:39.120Z,13.82
2023-03-06T02:24:23.390Z,12.70
2023-03-06T02:26:54.995Z,13.02
2023-03-06T02:29:27.919Z,16.83
2023-03-06T02:31:59.536Z,13.85
2023-03-06T02:34:53.071Z,14.65
2023-03-06T02:37:23.395Z,14.48
2023-03-06T02:39:59.655Z,12.65
2023-03-06T02:42:30.227Z,13.02
2023-03-06T02:45:02.272Z,18.50
2023-03-06T02:47:31.268Z,24.80
2023-03-06T02:50:00.118Z,19.67
2023-03-06T02:52:29.748Z,21.73
2023-03-06T02:54:58.590Z,18.13
2023-03-06T02:57:27.517Z,16.83
2023-03-06T02:59:59.254Z,15.45
2023-03-06T03:02:28.337Z,15.65
2023-03-06T03:04:57.277Z,14.98
2023-03-06T03:07:26.859Z,16.55
2023-03-06T03:09:55.733Z,19.58
2023-03-06T03:12:25.285Z,15.95
2023-03-06T03:14:54.348Z,17.88
2023-03-06T03:17:24.918Z,16.10
2023-03-06T03:19:53.781Z,13.25
2023-03-06T03:22:23.172Z,18.23
2023-03-06T03:24:52.304Z,18.13
2023-03-06T03:27:21.391Z,17.00
2023-03-06T03:29:50.327Z,16.85
2023-03-06T03:32:19.213Z,16.42
2023-03-06T03:34:49.722Z,18.65
2023-03-06T03:37:20.348Z,18.83
2023-03-06T03:39:49.640Z,15.85
2023-03-06T03:42:18.750Z,14.15
2023-03-06T03:44:47.793Z,14.70
2023-03-06T03:47:19.397Z,11.40
2023-03-06T03:49:49.722Z,14.35
2023-03-06T03:52:20.505Z,14.77
2023-03-06T03:54:49.331Z,13.27
2023-03-06T03:57:18.331Z,12.95
2023-03-06T03:59:52.263Z,17.63
2023-03-06T04:02:41.032Z,15.75
2023-03-06T04:05:20.378Z,14.35
2023-03-06T04:07:50.500Z,15.65
2023-03-06T04:10:19.482Z,15.93
2023-03-06T04:12:48.830Z,13.48
2023-03-06T04:15:17.850Z,14.23
2023-03-06T04:17:48.703Z,11.13
2023-03-06T04:20:24.194Z,13.07
2023-03-06T04:22:54.240Z,14.35
2023-03-06T04:25:23.872Z,13.68
2023-03-06T04:27:53.034Z,22.77
2023-03-06T04:30:22.681Z,19.30
2023-03-06T04:32:51.989Z,12.93
2023-03-06T04:35:21.060Z,13.35
2023-03-06T04:38:00.711Z,17.70
2023-03-06T04:40:34.272Z,21.58
2023-03-06T04:43:06.439Z,17.77
2023-03-06T04:45:36.188Z,13.07
2023-03-06T04:48:05.486Z,13.00
2023-03-06T04:50:34.631Z,13.43
2023-03-06T04:53:05.291Z,12.43
2023-03-06T04:55:34.433Z,14.23
2023-03-06T04:58:03.850Z,15.02
2023-03-06T05:00:32.737Z,13.30
2023-03-06T05:03:02.558Z,13.55
2023-03-06T05:05:31.792Z,11.15
2023-03-06T05:08:00.809Z,6.13
2023-03-06T05:10:31.061Z,8.30
2023-03-06T05:12:59.896Z,8.85
2023-03-06T05:15:29.544Z,10.00
2023-03-06T05:17:58.376Z,7.70
2023-03-06T05:20:28.539Z,8.82
2023-03-06T05:22:57.403Z,9.48
2023-03-06T05:25:26.318Z,10.15
2023-03-06T05:27:56.535Z,9.75
2023-03-06T05:30:25.569Z,10.57
2023-03-06T05:32:54.465Z,9.80
2023-03-06T05:35:24.510Z,9.25
2023-03-06T05:37:53.469Z,10.50
2023-03-06T05:40:22.755Z,9.82
2023-03-06T05:42:51.595Z,10.00
2023-03-06T05:45:21.870Z,10.02
2023-03-06T05:47:50.780Z,9.23
2023-03-06T05:50:19.906Z,12.23
2023-03-06T05:52:48.771Z,9.57
2023-03-06T05:55:19.652Z,8.50
2023-03-06T05:57:48.882Z,7.95
2023-03-06T06:00:19.401Z,46.97
2023-03-06T06:02:49.707Z,10.45
2023-03-06T06:05:18.695Z,5.63
2023-03-06T06:07:47.597Z,5.78
2023-03-06T06:10:17.710Z,6.57
2023-03-06T06:12:46.491Z,5.55
2023-03-06T06:15:15.506Z,4.90
2023-03-06T06:17:44.302Z,6.55
2023-03-06T06:20:17.309Z,7.10
2023-03-06T06:22:46.260Z,7.43
2023-03-06T06:25:15.394Z,7.10
2023-03-06T06:27:44.634Z,6.72
2023-03-06T06:30:16.341Z,8.43
2023-03-06T06:32:45.146Z,8.75
2023-03-06T06:35:15.513Z,11.23
2023-03-06T06:37:44.312Z,11.48
2023-03-06T06:40:13.775Z,7.82
2023-03-06T06:42:42.956Z,7.22
2023-03-06T06:45:12.685Z,7.47
2023-03-06T06:47:42.180Z,5.35
2023-03-06T06:50:13.939Z,9.38
2023-03-06T06:52:44.243Z,9.73
2023-03-06T06:55:13.681Z,6.75
2023-03-06T06:57:43.300Z,5.78
2023-03-06T07:00:15.398Z,5.55
2023-03-06T07:02:44.228Z,5.78
2023-03-06T07:05:13.068Z,5.70
2023-03-06T07:07:41.974Z,5.40
2023-03-06T07:10:16.292Z,7.60
2023-03-06T07:12:45.465Z,6.50
2023-03-06T07:15:15.233Z,6.05
2023-03-06T07:17:44.175Z,6.65
2023-03-06T07:20:13.199Z,6.70
2023-03-06T07:22:50.944Z,7.65
2023-03-06T07:25:22.452Z,6.55
2023-03-06T07:27:54.138Z,5.80
2023-03-06T07:30:24.420Z,5.80
2023-03-06T07:32:56.894Z,8.95
2023-03-06T07:35:26.591Z,8.40
2023-03-06T07:37:55.509Z,9.15
2023-03-06T07:40:26.494Z,10.48
2023-03-06T07:43:06.074Z,7.22
2023-03-06T07:45:47.000Z,5.35
2023-03-06T07:48:16.062Z,6.55
2023-03-06T07:50:45.179Z,6.38
2023-03-06T07:53:14.383Z,5.90
2023-03-06T07:55:44.622Z,5.80
2023-03-06T07:58:13.507Z,6.53
2023-03-06T08:00:42.385Z,6.07
2023-03-06T08:03:12.441Z,6.15
2023-03-06T08:05:41.468Z,7.25
2023-03-06T08:08:10.552Z,5.00
2023-03-06T08:10:39.326Z,7.30
2023-03-06T08:13:09.509Z,5.13
2023-03-06T08:15:38.340Z,6.10
2023-03-06T08:18:07.263Z,5.22
2023-03-06T08:20:36.140Z,6.80
2023-03-06T08:23:05.015Z,5.32
2023-03-06T08:25:33.871Z,5.20
2023-03-06T08:28:03.208Z,6.07
2023-03-06T08:30:33.499Z,6.40
2023-03-06T08:33:02.505Z,10.88
2023-03-06T08:35:31.367Z,5.78
2023-03-06T08:38:00.172Z,5.15
2023-03-06T08:40:30.551Z,5.25
2023-03-06T08:42:59.389Z,5.25
2023-03-06T08:45:28.276Z,5.20
2023-03-06T08:47:58.533Z,4.28
2023-03-06T08:50:27.417Z,4.68
2023-03-06T08:52:56.253Z,4.43
2023-03-06T08:55:25.058Z,4.25
2023-03-06T08:57:53.855Z,4.22
2023-03-06T09:00:22.997Z,4.50
2023-03-06T09:02:51.947Z,3.45
2023-03-06T09:05:22.351Z,5.10
2023-03-06T09:07:51.194Z,5.03
2023-03-06T09:10:22.056Z,4.55
2023-03-06T09:12:54.426Z,4.10
2023-03-06T09:15:24.948Z,4.25
2023-03-06T09:17:54.412Z,4.97
2023-03-06T09:20:24.663Z,4.55
2023-03-06T09:22:53.547Z,4.88
2023-03-06T09:25:23.360Z,4.18
2023-03-06T09:28:08.764Z,4.53
2023-03-06T09:30:41.989Z,4.88
2023-03-06T09:33:10.911Z,4.57
2023-03-06T09:35:48.495Z,4.25
2023-03-06T09:38:17.385Z,5.35
2023-03-06T09:41:00.752Z,5.10
2023-03-06T09:43:33.116Z,4.93
2023-03-06T09:46:04.049Z,5.22
2023-03-06T09:48:41.752Z,5.40
2023-03-06T09:51:16.429Z,5.85
2023-03-06T09:53:57.402Z,5.47
2023-03-06T09:56:31.150Z,5.95
2023-03-06T09:59:06.670Z,4.75
2023-03-06T10:01:41.211Z,3.70
2023-03-06T10:04:19.686Z,5.35
2023-03-06T10:06:51.757Z,3.22
2023-03-06T10:09:25.809Z,4.80
2023-03-06T10:11:58.150Z,4.45
2023-03-06T10:14:32.866Z,3.97
2023-03-06T10:17:02.442Z,3.92
2023-03-06T10:19:34.743Z,3.40
2023-03-06T10:22:12.000Z,5.28
2023-03-06T10:24:50.155Z,3.17
2023-03-06T10:27:35.737Z,3.03
2023-03-06T10:30:22.112Z,3.05
2023-03-06T10:32:57.539Z,3.58
2023-03-06T10:35:33.826Z,3.05
2023-03-06T10:38:21.079Z,2.90
2023-03-06T10:41:05.015Z,4.88
2023-03-06T10:43:36.268Z,2.85
2023-03-06T10:46:07.526Z,2.88
2023-03-06T10:48:40.910Z,2.78
2023-03-06T10:51:18.928Z,2.93
2023-03-06T10:53:55.085Z,2.10
2023-03-06T10:56:32.894Z,2.78
2023-03-06T10:59:09.981Z,2.83
2023-03-06T11:01:40.123Z,2.78
2023-03-06T11:04:24.951Z,2.83
2023-03-06T11:07:08.145Z,2.77
2023-03-06T11:09:38.603Z,3.58
2023-03-06T11:12:23.978Z,2.90
2023-03-06T11:15:18.821Z,2.38
2023-03-06T11:17:54.284Z,2.78
2023-03-06T11:20:26.746Z,4.25
2023-03-06T11:23:00.782Z,6.55
2023-03-06T11:25:36.020Z,2.65
2023-03-06T11:28:09.447Z,13.40
2023-03-06T11:30:43.509Z,2.97
2023-03-06T11:33:20.365Z,2.83
2023-03-06T11:35:57.969Z,3.05
2023-03-06T11:38:36.556Z,2.22
2023-03-06T11:41:14.994Z,2.35
2023-03-06T11:43:52.162Z,2.35
2023-03-06T11:46:25.687Z,3.40
2023-03-06T11:48:59.402Z,2.85
2023-03-06T11:51:32.599Z,2.90
2023-03-06T11:54:03.191Z,2.65
2023-03-06T11:56:42.554Z,2.25
2023-03-06T11:59:47.016Z,2.45
2023-03-06T12:02:39.357Z,2.72
2023-03-06T12:05:37.314Z,3.63
2023-03-06T12:08:41.363Z,2.65
2023-03-06T12:11:18.774Z,2.70
2023-03-06T12:14:05.981Z,3.85
2023-03-06T12:16:59.528Z,2.78
2023-03-06T12:19:41.849Z,2.53
2023-03-06T12:22:22.629Z,2.40
2023-03-06T12:25:03.204Z,3.00
2023-03-06T12:27:43.380Z,2.25
2023-03-06T12:30:37.720Z,2.88
2023-03-06T12:33:17.407Z,2.75
2023-03-06T12:36:00.959Z,3.47
2023-03-06T12:38:51.983Z,2.78
2023-03-06T12:41:29.861Z,2.30
2023-03-06T12:44:25.360Z,2.15
2023-03-06T12:46:59.225Z,2.17
2023-03-06T12:49:32.842Z,2.83
2023-03-06T12:52:03.445Z,2.08
2023-03-06T12:54:37.415Z,2.20
2023-03-06T12:57:08.733Z,2.72
2023-03-06T12:59:40.230Z,2.60
2023-03-06T13:02:33.066Z,2.33
2023-03-06T13:05:23.433Z,9.93
2023-03-06T13:08:03.830Z,2.67
2023-03-06T13:10:35.262Z,2.03
2023-03-06T13:13:05.394Z,3.03
2023-03-06T13:15:39.819Z,2.80
2023-03-06T13:18:51.046Z,1.92
2023-03-06T13:21:46.086Z,2.15
2023-03-06T13:24:21.219Z,2.80
2023-03-06T13:26:57.029Z,2.53
2023-03-06T13:29:52.334Z,1.92
2023-03-06T13:32:31.161Z,2.33
2023-03-06T13:35:02.032Z,2.05
2023-03-06T13:37:50.748Z,2.15
2023-03-06T13:40:32.017Z,2.55
2023-03-06T13:43:13.337Z,2.40
2023-03-06T13:45:43.302Z,2.15
2023-03-06T13:48:43.054Z,2.40
2023-03-06T13:51:25.729Z,2.47
2023-03-06T13:54:35.230Z,3.00
2023-03-06T13:57:19.952Z,2.42
2023-03-06T14:00:10.352Z,1.77
2023-03-06T14:03:27.868Z,2.53
2023-03-06T14:05:56.833Z,2.08
2023-03-06T14:08:30.313Z,2.30
2023-03-06T14:11:05.238Z,2.20
2023-03-06T14:13:47.090Z,3.00
2023-03-06T14:16:22.125Z,2.20
2023-03-06T14:18:52.569Z,1.48
2023-03-06T14:21:30.906Z,2.67
2023-03-06T14:24:03.403Z,2.83
2023-03-06T14:26:35.278Z,2.80
2023-03-06T14:29:05.017Z,2.42
2023-03-06T14:31:38.329Z,2.40
2023-03-06T14:34:10.212Z,3.83
2023-03-06T14:36:46.293Z,2.65
2023-03-06T14:39:21.322Z,2.47
2023-03-06T14:41:50.413Z,2.17
2023-03-06T14:44:21.787Z,2.45
2023-03-06T14:46:52.518Z,3.67
2023-03-06T14:49:22.870Z,4.75
2023-03-06T14:51:54.278Z,3.17
2023-03-06T14:54:28.695Z,7.63
2023-03-06T14:57:03.261Z,6.30
2023-03-06T14:59:38.251Z,1.83
2023-03-06T15:02:12.577Z,2.80
2023-03-06T15:04:45.457Z,2.80
2023-03-06T15:07:18.962Z,2.30
2023-03-06T15:09:50.959Z,7.82
2023-03-06T15:12:38.722Z,7.75
2023-03-06T15:15:30.069Z,5.75
2023-03-06T15:17:59.052Z,3.88
2023-03-06T15:20:43.843Z,4.35
2023-03-06T15:23:23.060Z,3.53
2023-03-06T15:25:56.348Z,3.03
2023-03-06T15:28:31.295Z,3.85
2023-03-06T15:31:21.315Z,3.67
2023-03-06T15:34:18.723Z,2.40
2023-03-06T15:36:50.035Z,2.67
2023-03-06T15:39:38.319Z,5.75
2023-03-06T15:42:28.096Z,8.07
2023-03-06T15:45:03.075Z,3.15
2023-03-06T15:47:32.762Z,2.30
2023-03-06T15:50:03.282Z,3.22
2023-03-06T15:52:32.088Z,2.97
2023-03-06T15:55:00.914Z,3.55
2023-03-06T15:57:32.199Z,2.85
2023-03-06T16:00:02.161Z,2.63
2023-03-06T16:02:40.398Z,4.53
2023-03-06T16:05:16.869Z,5.55
2023-03-06T16:07:46.764Z,3.97
2023-03-06T16:10:17.590Z,6.15
2023-03-06T16:12:50.537Z,4.55
2023-03-06T16:15:21.817Z,5.47
2023-03-06T16:17:50.803Z,4.68
2023-03-06T16:20:21.690Z,3.92
2023-03-06T16:22:51.191Z,4.93
2023-03-06T16:25:22.682Z,5.40
2023-03-06T16:27:56.847Z,4.80
2023-03-06T16:30:27.562Z,6.32
2023-03-06T16:32:56.427Z,6.05
2023-03-06T16:35:25.596Z,5.90
2023-03-06T16:37:54.746Z,5.03
2023-03-06T16:40:25.615Z,5.22
2023-03-06T16:42:56.627Z,8.13
2023-03-06T16:45:25.988Z,8.40
2023-03-06T16:47:54.877Z,10.15
2023-03-06T16:50:26.366Z,11.93
2023-03-06T16:52:57.078Z,7.22
2023-03-06T16:55:27.304Z,4.95
2023-03-06T16:57:57.758Z,5.10
2023-03-06T17:00:31.127Z,6.43
2023-03-06T17:03:00.765Z,6.68
2023-03-06T17:05:33.136Z,5.97
2023-03-06T17:08:02.213Z,6.93
2023-03-06T17:10:31.200Z,6.03
2023-03-06T17:13:02.119Z,6.75
2023-03-06T17:15:30.993Z,7.35
2023-03-06T17:17:59.867Z,7.00
2023-03-06T17:20:29.615Z,6.28
2023-03-06T17:22:58.448Z,9.05
2023-03-06T17:25:27.312Z,11.85
2023-03-06T17:27:56.112Z,18.80
2023-03-06T17:30:26.285Z,22.60
2023-03-06T17:32:55.107Z,24.50
2023-03-06T17:35:23.940Z,20.73
2023-03-06T17:37:52.832Z,18.38
2023-03-06T17:40:21.746Z,10.25
2023-03-06T17:42:51.375Z,6.53
2023-03-06T17:45:22.465Z,4.65
2023-03-06T17:47:55.607Z,6.00
2023-03-06T17:50:24.453Z,4.38
2023-03-06T17:52:53.301Z,5.38
2023-03-06T17:55:22.104Z,4.57
2023-03-06T17:57:52.896Z,3.63
2023-03-06T18:00:23.028Z,35.13
2023-03-06T18:02:52.278Z,27.90
2023-03-06T18:05:22.520Z,30.90
2023-03-06T18:07:51.300Z,28.58
2023-03-06T18:10:20.246Z,21.77
2023-03-06T18:12:49.122Z,18.95
2023-03-06T18:15:18.125Z,24.75
2023-03-06T18:17:47.295Z,17.55
2023-03-06T18:20:16.270Z,13.38
2023-03-06T18:22:46.485Z,13.15
2023-03-06T18:25:15.327Z,14.82
2023-03-06T18:27:44.287Z,16.55
2023-03-06T18:30:14.571Z,27.60
2023-03-06T18:32:43.505Z,24.38
2023-03-06T18:35:12.402Z,25.23
2023-03-06T18:37:41.216Z,22.30
2023-03-06T18:40:13.296Z,20.50
2023-03-06T18:42:42.169Z,22.33
2023-03-06T18:45:12.875Z,24.10
2023-03-06T18:47:42.018Z,22.05
2023-03-06T18:50:16.466Z,25.58
2023-03-06T18:52:45.590Z,40.77
2023-03-06T18:55:15.894Z,36.72
2023-03-06T18:57:44.730Z,37.08
2023-03-06T19:00:14.319Z,35.00
2023-03-06T19:02:43.104Z,39.28
2023-03-06T19:05:12.011Z,33.42
2023-03-06T19:07:40.895Z,33.47
2023-03-06T19:10:11.076Z,36.08
2023-03-06T19:12:41.259Z,26.05
2023-03-06T19:15:10.781Z,24.58
2023-03-06T19:17:39.638Z,32.95
2023-03-06T19:20:09.698Z,35.25
2023-03-06T19:22:38.480Z,42.60
2023-03-06T19:25:08.458Z,31.23
2023-03-06T19:27:39.167Z,34.15
2023-03-06T19:30:13.677Z,73.03
2023-03-06T19:32:46.771Z,47.83
2023-03-06T19:35:15.634Z,44.88
2023-03-06T19:37:44.419Z,48.67
2023-03-06T19:40:14.221Z,71.38
2023-03-06T19:42:43.229Z,46.08
2023-03-06T19:45:13.755Z,56.10
2023-03-06T19:47:42.603Z,42.05
2023-03-06T19:50:12.503Z,45.00
2023-03-06T19:52:41.346Z,74.82
2023-03-06T19:55:11.484Z,59.28
2023-03-06T19:57:40.317Z,43.30
2023-03-06T20:00:11.228Z,64.75
2023-03-06T20:02:43.917Z,46.97
2023-03-06T20:05:12.816Z,43.92
2023-03-06T20:07:41.601Z,38.42
2023-03-06T20:10:11.900Z,71.00
2023-03-06T20:12:40.779Z,50.55
2023-03-06T20:15:10.731Z,91.90
2023-03-06T20:17:40.542Z,42.25
2023-03-06T20:20:12.723Z,34.22
2023-03-06T20:22:41.716Z,33.92
2023-03-06T20:25:17.222Z,36.43
2023-03-06T20:27:46.142Z,37.63
2023-03-06T20:30:15.604Z,35.15
2023-03-06T20:32:44.541Z,32.67
2023-03-06T20:35:14.829Z,33.67
2023-03-06T20:37:43.699Z,31.92
2023-03-06T20:40:13.646Z,28.02
2023-03-06T20:42:42.576Z,28.67
2023-03-06T20:45:11.962Z,34.70
2023-03-06T20:47:47.340Z,43.67
2023-03-06T20:50:17.942Z,61.47
2023-03-06T20:52:46.854Z,61.05
2023-03-06T20:55:15.789Z,36.15
2023-03-06T20:57:44.676Z,35.78
2023-03-06T21:00:14.286Z,38.00
2023-03-06T21:02:43.146Z,40.65
2023-03-06T21:05:12.255Z,49.90
2023-03-06T21:07:42.607Z,37.45
2023-03-06T21:10:13.428Z,26.90
2023-03-06T21:12:42.455Z,25.60
2023-03-06T21:15:13.008Z,26.40
2023-03-06T21:17:41.952Z,24.60
2023-03-06T21:20:12.184Z,22.25
2023-03-06T21:22:42.499Z,21.95
2023-03-06T21:25:12.828Z,24.17
2023-03-06T21:27:41.796Z,26.73
2023-03-06T21:30:13.374Z,30.25
2023-03-06T21:32:42.585Z,33.33
2023-03-06T21:35:11.499Z,34.50
2023-03-06T21:37:40.452Z,20.58
2023-03-06T21:40:12.848Z,29.40
2023-03-06T21:42:41.727Z,28.85
2023-03-06T21:45:12.084Z,33.38
2023-03-06T21:47:41.069Z,41.45
2023-03-06T21:50:12.293Z,46.00
2023-03-06T21:52:41.484Z,44.22
2023-03-06T21:55:12.026Z,42.05
2023-03-06T21:57:41.242Z,39.47
2023-03-06T22:00:12.909Z,46.70
2023-03-06T22:02:42.319Z,45.60
2023-03-06T22:05:11.423Z,46.72
2023-03-06T22:07:40.814Z,34.83
2023-03-06T22:10:14.397Z,25.02
2023-03-06T22:12:43.249Z,17.83
2023-03-06T22:15:12.472Z,15.82
2023-03-06T22:17:41.708Z,14.82
2023-03-06T22:20:13.161Z,16.80
2023-03-06T22:22:42.373Z,17.92
2023-03-06T22:25:13.125Z,14.55
2023-03-06T22:27:41.945Z,12.98
2023-03-06T22:30:11.979Z,12.38
2023-03-06T22:32:40.983Z,11.52
2023-03-06T22:35:10.630Z,16.98
2023-03-06T22:37:39.484Z,19.60
2023-03-06T22:40:09.463Z,15.68
2023-03-06T22:42:39.678Z,18.40
2023-03-06T22:45:10.320Z,18.42
2023-03-06T22:47:39.382Z,16.00
2023-03-06T22:50:09.081Z,21.00
2023-03-06T22:52:38.031Z,30.58
2023-03-06T22:55:08.065Z,39.35
2023-03-06T22:57:36.893Z,28.90
2023-03-06T23:00:09.105Z,27.42
2023-03-06T23:02:38.695Z,26.48
2023-03-06T23:05:07.777Z,25.65
2023-03-06T23:07:36.654Z,24.15
2023-03-06T23:10:06.917Z,24.02
2023-03-06T23:12:54.254Z,21.98
2023-03-06T23:15:43.177Z,24.88
2023-03-06T23:18:31.408Z,29.30
2023-03-06T23:21:20.583Z,31.98
2023-03-06T23:24:08.577Z,42.45
2023-03-06T23:26:37.468Z,30.50
2023-03-06T23:29:06.322Z,28.58
2023-03-06T23:31:37.450Z,28.33
2023-03-06T23:34:06.350Z,24.42
2023-03-06T23:36:35.220Z,27.05
2023-03-06T23:39:04.274Z,29.85
2023-03-06T23:41:33.221Z,33.67
2023-03-06T23:44:02.087Z,26.58
2023-03-06T23:46:31.294Z,28.92
2023-03-06T23:49:02.088Z,24.45
2023-03-06T23:51:31.000Z,18.00
2023-03-06T23:54:02.097Z,18.90
2023-03-06T23:56:30.879Z,18.33
2023-03-06T23:58:59.705Z,20.05
